sensor_id;sensor_type;location;lat;lon;timestamp;P1;durP1;ratioP1;P2;durP2;ratioP2
21806;SDS011;11065;50.786;7.840;2022-10-16T00:00:54;10.00;;;6.10;;
21806;SDS011;11065;50.786;7.840;2022-10-16T00:03:21;11.37;;;7.37;;
21806;SDS011;11065;50.786;7.840;2022-10-16T00:05:58;19.30;;;9.73;;
21806;SDS011;11065;50.786;7.840;2022-10-16T00:08:26;12.33;;;7.37;;
21806;SDS011;11065;50.786;7.840;2022-10-16T00:10:58;12.47;;;7.67;;
21806;SDS011;11065;50.786;7.840;2022-10-16T00:13:30;19.17;;;7.00;;
21806;SDS011;11065;50.786;7.840;2022-10-16T00:15:59;29.07;;;6.37;;
21806;SDS011;11065;50.786;7.840;2022-10-16T00:18:27;17.40;;;5.70;;
21806;SDS011;11065;50.786;7.840;2022-10-16T00:20:55;16.43;;;5.57;;
21806;SDS011;11065;50.786;7.840;2022-10-16T00:23:22;14.63;;;4.80;;
21806;SDS011;11065;50.786;7.840;2022-10-16T00:25:56;9.80;;;4.10;;
21806;SDS011;11065;50.786;7.840;2022-10-16T00:28:27;5.60;;;4.00;;
21806;SDS011;11065;50.786;7.840;2022-10-16T00:30:54;41.97;;;5.30;;
21806;SDS011;11065;50.786;7.840;2022-10-16T00:33:22;16.67;;;3.90;;
21806;SDS011;11065;50.786;7.840;2022-10-16T00:35:49;29.73;;;3.77;;
21806;SDS011;11065;50.786;7.840;2022-10-16T00:38:16;7.83;;;3.07;;
21806;SDS011;11065;50.786;7.840;2022-10-16T00:40:43;8.80;;;3.37;;
21806;SDS011;11065;50.786;7.840;2022-10-16T00:43:53;5.83;;;2.77;;
21806;SDS011;11065;50.786;7.840;2022-10-16T00:46:02;5.90;;;2.00;;
21806;SDS011;11065;50.786;7.840;2022-10-16T00:48:35;4.00;;;2.77;;
21806;SDS011;11065;50.786;7.840;2022-10-16T00:51:02;6.87;;;3.30;;
21806;SDS011;11065;50.786;7.840;2022-10-16T00:53:30;7.23;;;3.47;;
21806;SDS011;11065;50.786;7.840;2022-10-16T00:55:58;7.70;;;3.00;;
21806;SDS011;11065;50.786;7.840;2022-10-16T00:58:25;4.03;;;2.73;;
21806;SDS011;11065;50.786;7.840;2022-10-16T01:00:52;12.40;;;3.47;;
21806;SDS011;11065;50.786;7.840;2022-10-16T01:03:30;8.93;;;3.57;;
21806;SDS011;11065;50.786;7.840;2022-10-16T01:06:05;18.60;;;4.90;;
21806;SDS011;11065;50.786;7.840;2022-10-16T01:08:47;4.87;;;2.87;;
21806;SDS011;11065;50.786;7.840;2022-10-16T01:11:31;3.57;;;2.03;;
21806;SDS011;11065;50.786;7.840;2022-10-16T01:14:13;6.17;;;2.50;;
21806;SDS011;11065;50.786;7.840;2022-10-16T01:16:51;4.57;;;2.70;;
21806;SDS011;11065;50.786;7.840;2022-10-16T01:22:03;3.33;;;1.97;;
21806;SDS011;11065;50.786;7.840;2022-10-16T01:24:33;5.97;;;3.63;;
21806;SDS011;11065;50.786;7.840;2022-10-16T01:32:57;7.67;;;4.70;;
21806;SDS011;11065;50.786;7.840;2022-10-16T01:38:06;7.40;;;4.37;;
21806;SDS011;11065;50.786;7.840;2022-10-16T01:40:39;8.20;;;4.30;;
21806;SDS011;11065;50.786;7.840;2022-10-16T01:43:12;12.47;;;5.30;;
21806;SDS011;11065;50.786;7.840;2022-10-16T01:45:46;8.50;;;4.17;;
21806;SDS011;11065;50.786;7.840;2022-10-16T01:48:14;6.43;;;3.93;;
21806;SDS011;11065;50.786;7.840;2022-10-16T01:50:44;6.43;;;3.67;;
21806;SDS011;11065;50.786;7.840;2022-10-16T01:53:22;8.77;;;3.43;;
21806;SDS011;11065;50.786;7.840;2022-10-16T01:55:50;5.43;;;2.90;;
21806;SDS011;11065;50.786;7.840;2022-10-16T01:58:21;7.03;;;3.00;;
21806;SDS011;11065;50.786;7.840;2022-10-16T02:00:50;6.17;;;2.47;;
21806;SDS011;11065;50.786;7.840;2022-10-16T02:03:22;5.27;;;2.27;;
21806;SDS011;11065;50.786;7.840;2022-10-16T02:05:55;4.03;;;2.60;;
21806;SDS011;11065;50.786;7.840;2022-10-16T02:08:25;5.20;;;2.90;;
21806;SDS011;11065;50.786;7.840;2022-10-16T02:10:59;4.37;;;2.33;;
21806;SDS011;11065;50.786;7.840;2022-10-16T02:13:31;5.23;;;2.40;;
21806;SDS011;11065;50.786;7.840;2022-10-16T02:16:02;4.03;;;2.43;;
21806;SDS011;11065;50.786;7.840;2022-10-16T02:18:29;4.53;;;2.30;;
21806;SDS011;11065;50.786;7.840;2022-10-16T02:26:27;8.13;;;2.43;;
21806;SDS011;11065;50.786;7.840;2022-10-16T02:29:10;4.90;;;2.10;;
21806;SDS011;11065;50.786;7.840;2022-10-16T02:31:43;5.23;;;2.30;;
21806;SDS011;11065;50.786;7.840;2022-10-16T02:34:13;3.30;;;1.90;;
21806;SDS011;11065;50.786;7.840;2022-10-16T02:36:42;3.83;;;2.03;;
21806;SDS011;11065;50.786;7.840;2022-10-16T02:39:10;4.50;;;2.20;;
21806;SDS011;11065;50.786;7.840;2022-10-16T02:41:38;3.57;;;2.17;;
21806;SDS011;11065;50.786;7.840;2022-10-16T02:44:05;4.20;;;2.37;;
21806;SDS011;11065;50.786;7.840;2022-10-16T02:46:31;4.83;;;2.50;;
21806;SDS011;11065;50.786;7.840;2022-10-16T02:48:58;3.67;;;2.07;;
21806;SDS011;11065;50.786;7.840;2022-10-16T02:51:25;6.50;;;2.37;;
21806;SDS011;11065;50.786;7.840;2022-10-16T02:53:52;11.13;;;2.50;;
21806;SDS011;11065;50.786;7.840;2022-10-16T02:56:18;8.83;;;2.10;;
21806;SDS011;11065;50.786;7.840;2022-10-16T02:58:45;7.10;;;2.43;;
21806;SDS011;11065;50.786;7.840;2022-10-16T03:01:12;6.03;;;2.37;;
21806;SDS011;11065;50.786;7.840;2022-10-16T03:03:40;5.97;;;2.30;;
21806;SDS011;11065;50.786;7.840;2022-10-16T03:06:07;8.07;;;2.77;;
21806;SDS011;11065;50.786;7.840;2022-10-16T03:08:33;3.43;;;2.27;;
21806;SDS011;11065;50.786;7.840;2022-10-16T03:11:00;3.57;;;2.00;;
21806;SDS011;11065;50.786;7.840;2022-10-16T03:13:27;3.83;;;2.50;;
21806;SDS011;11065;50.786;7.840;2022-10-16T03:15:54;3.33;;;2.33;;
21806;SDS011;11065;50.786;7.840;2022-10-16T03:18:21;5.83;;;2.13;;
21806;SDS011;11065;50.786;7.840;2022-10-16T03:20:47;3.47;;;1.67;;
21806;SDS011;11065;50.786;7.840;2022-10-16T03:23:15;3.33;;;2.10;;
21806;SDS011;11065;50.786;7.840;2022-10-16T03:25:41;3.90;;;2.20;;
21806;SDS011;11065;50.786;7.840;2022-10-16T03:28:08;4.23;;;2.10;;
21806;SDS011;11065;50.786;7.840;2022-10-16T03:30:37;5.47;;;1.90;;
21806;SDS011;11065;50.786;7.840;2022-10-16T03:33:05;3.10;;;1.90;;
21806;SDS011;11065;50.786;7.840;2022-10-16T03:35:32;6.33;;;3.83;;
21806;SDS011;11065;50.786;7.840;2022-10-16T03:37:59;6.17;;;2.90;;
21806;SDS011;11065;50.786;7.840;2022-10-16T03:40:26;5.90;;;2.80;;
21806;SDS011;11065;50.786;7.840;2022-10-16T03:42:52;4.23;;;2.20;;
21806;SDS011;11065;50.786;7.840;2022-10-16T03:45:23;4.83;;;2.43;;
21806;SDS011;11065;50.786;7.840;2022-10-16T03:47:50;4.80;;;2.10;;
21806;SDS011;11065;50.786;7.840;2022-10-16T03:50:17;3.87;;;2.47;;
21806;SDS011;11065;50.786;7.840;2022-10-16T03:52:44;3.40;;;2.13;;
21806;SDS011;11065;50.786;7.840;2022-10-16T03:55:10;4.07;;;2.30;;
21806;SDS011;11065;50.786;7.840;2022-10-16T03:57:37;3.10;;;2.07;;
21806;SDS011;11065;50.786;7.840;2022-10-16T04:00:04;3.20;;;1.60;;
21806;SDS011;11065;50.786;7.840;2022-10-16T04:02:37;2.90;;;1.60;;
21806;SDS011;11065;50.786;7.840;2022-10-16T04:05:04;2.97;;;1.70;;
21806;SDS011;11065;50.786;7.840;2022-10-16T04:07:31;5.43;;;1.40;;
21806;SDS011;11065;50.786;7.840;2022-10-16T04:09:58;2.80;;;1.50;;
21806;SDS011;11065;50.786;7.840;2022-10-16T04:12:25;2.53;;;1.37;;
21806;SDS011;11065;50.786;7.840;2022-10-16T04:14:52;2.13;;;1.57;;
21806;SDS011;11065;50.786;7.840;2022-10-16T04:17:19;1.97;;;1.40;;
21806;SDS011;11065;50.786;7.840;2022-10-16T04:19:46;3.37;;;1.20;;
21806;SDS011;11065;50.786;7.840;2022-10-16T04:22:13;1.60;;;1.00;;
21806;SDS011;11065;50.786;7.840;2022-10-16T04:24:39;1.90;;;0.87;;
21806;SDS011;11065;50.786;7.840;2022-10-16T04:27:06;1.87;;;0.90;;
21806;SDS011;11065;50.786;7.840;2022-10-16T04:29:33;2.97;;;0.90;;
21806;SDS011;11065;50.786;7.840;2022-10-16T04:31:59;3.00;;;0.97;;
21806;SDS011;11065;50.786;7.840;2022-10-16T04:34:26;1.90;;;0.93;;
21806;SDS011;11065;50.786;7.840;2022-10-16T04:36:53;2.60;;;1.03;;
21806;SDS011;11065;50.786;7.840;2022-10-16T04:39:20;2.50;;;1.20;;
21806;SDS011;11065;50.786;7.840;2022-10-16T04:41:46;1.07;;;0.87;;
21806;SDS011;11065;50.786;7.840;2022-10-16T04:44:14;3.87;;;0.90;;
21806;SDS011;11065;50.786;7.840;2022-10-16T04:46:40;2.80;;;1.00;;
21806;SDS011;11065;50.786;7.840;2022-10-16T04:49:07;1.37;;;1.00;;
21806;SDS011;11065;50.786;7.840;2022-10-16T04:51:34;1.67;;;0.90;;
21806;SDS011;11065;50.786;7.840;2022-10-16T04:54:02;1.40;;;0.90;;
21806;SDS011;11065;50.786;7.840;2022-10-16T04:56:28;1.50;;;0.90;;
21806;SDS011;11065;50.786;7.840;2022-10-16T04:58:55;2.03;;;1.20;;
21806;SDS011;11065;50.786;7.840;2022-10-16T05:01:22;2.40;;;1.07;;
21806;SDS011;11065;50.786;7.840;2022-10-16T05:03:49;2.10;;;1.00;;
21806;SDS011;11065;50.786;7.840;2022-10-16T05:06:16;2.00;;;1.00;;
21806;SDS011;11065;50.786;7.840;2022-10-16T05:08:42;1.50;;;1.00;;
21806;SDS011;11065;50.786;7.840;2022-10-16T05:11:09;4.30;;;1.00;;
21806;SDS011;11065;50.786;7.840;2022-10-16T05:13:36;1.10;;;0.90;;
21806;SDS011;11065;50.786;7.840;2022-10-16T05:16:03;1.70;;;0.80;;
21806;SDS011;11065;50.786;7.840;2022-10-16T05:18:29;1.10;;;0.80;;
21806;SDS011;11065;50.786;7.840;2022-10-16T05:20:57;1.23;;;0.67;;
21806;SDS011;11065;50.786;7.840;2022-10-16T05:23:23;1.07;;;0.60;;
21806;SDS011;11065;50.786;7.840;2022-10-16T05:25:54;1.93;;;0.80;;
21806;SDS011;11065;50.786;7.840;2022-10-16T05:28:21;1.13;;;0.90;;
21806;SDS011;11065;50.786;7.840;2022-10-16T05:30:48;1.40;;;0.90;;
21806;SDS011;11065;50.786;7.840;2022-10-16T05:33:15;1.23;;;0.73;;
21806;SDS011;11065;50.786;7.840;2022-10-16T05:35:42;1.50;;;0.73;;
21806;SDS011;11065;50.786;7.840;2022-10-16T05:38:09;2.80;;;0.87;;
21806;SDS011;11065;50.786;7.840;2022-10-16T05:40:36;0.60;;;0.60;;
21806;SDS011;11065;50.786;7.840;2022-10-16T05:43:03;1.03;;;0.63;;
21806;SDS011;11065;50.786;7.840;2022-10-16T05:45:30;0.93;;;0.63;;
21806;SDS011;11065;50.786;7.840;2022-10-16T05:47:56;2.63;;;0.80;;
21806;SDS011;11065;50.786;7.840;2022-10-16T05:50:23;1.87;;;0.57;;
21806;SDS011;11065;50.786;7.840;2022-10-16T05:52:50;1.87;;;0.50;;
21806;SDS011;11065;50.786;7.840;2022-10-16T05:55:17;2.77;;;0.80;;
21806;SDS011;11065;50.786;7.840;2022-10-16T05:57:44;1.73;;;0.60;;
21806;SDS011;11065;50.786;7.840;2022-10-16T06:00:11;0.83;;;0.50;;
21806;SDS011;11065;50.786;7.840;2022-10-16T06:02:38;1.57;;;0.50;;
21806;SDS011;11065;50.786;7.840;2022-10-16T06:05:05;2.20;;;0.50;;
21806;SDS011;11065;50.786;7.840;2022-10-16T06:07:35;1.07;;;0.53;;
21806;SDS011;11065;50.786;7.840;2022-10-16T06:10:03;5.37;;;0.77;;
21806;SDS011;11065;50.786;7.840;2022-10-16T06:12:30;1.57;;;0.70;;
21806;SDS011;11065;50.786;7.840;2022-10-16T06:14:58;1.57;;;0.50;;
21806;SDS011;11065;50.786;7.840;2022-10-16T06:17:24;1.60;;;0.60;;
21806;SDS011;11065;50.786;7.840;2022-10-16T06:19:51;2.13;;;0.60;;
21806;SDS011;11065;50.786;7.840;2022-10-16T06:22:18;0.53;;;0.40;;
21806;SDS011;11065;50.786;7.840;2022-10-16T06:24:45;0.93;;;0.40;;
21806;SDS011;11065;50.786;7.840;2022-10-16T06:27:13;0.63;;;0.40;;
21806;SDS011;11065;50.786;7.840;2022-10-16T06:29:40;0.90;;;0.50;;
21806;SDS011;11065;50.786;7.840;2022-10-16T06:32:09;1.50;;;0.40;;
21806;SDS011;11065;50.786;7.840;2022-10-16T06:34:36;1.43;;;0.40;;
21806;SDS011;11065;50.786;7.840;2022-10-16T06:37:08;0.60;;;0.20;;
21806;SDS011;11065;50.786;7.840;2022-10-16T06:39:35;2.20;;;0.30;;
21806;SDS011;11065;50.786;7.840;2022-10-16T06:42:01;1.30;;;0.40;;
21806;SDS011;11065;50.786;7.840;2022-10-16T06:44:34;1.63;;;0.33;;
21806;SDS011;11065;50.786;7.840;2022-10-16T06:47:01;0.60;;;0.33;;
21806;SDS011;11065;50.786;7.840;2022-10-16T06:49:28;0.73;;;0.50;;
21806;SDS011;11065;50.786;7.840;2022-10-16T06:51:55;3.07;;;0.50;;
21806;SDS011;11065;50.786;7.840;2022-10-16T06:54:22;1.23;;;0.50;;
21806;SDS011;11065;50.786;7.840;2022-10-16T06:56:49;1.93;;;0.40;;
21806;SDS011;11065;50.786;7.840;2022-10-16T06:59:17;1.97;;;0.80;;
21806;SDS011;11065;50.786;7.840;2022-10-16T07:01:44;0.90;;;0.50;;
21806;SDS011;11065;50.786;7.840;2022-10-16T07:04:11;0.87;;;0.70;;
21806;SDS011;11065;50.786;7.840;2022-10-16T07:06:38;0.40;;;0.40;;
21806;SDS011;11065;50.786;7.840;2022-10-16T07:09:08;0.57;;;0.30;;
21806;SDS011;11065;50.786;7.840;2022-10-16T07:11:36;0.53;;;0.40;;
21806;SDS011;11065;50.786;7.840;2022-10-16T07:14:04;0.90;;;0.40;;
21806;SDS011;11065;50.786;7.840;2022-10-16T07:16:32;2.87;;;0.40;;
21806;SDS011;11065;50.786;7.840;2022-10-16T07:18:59;3.03;;;0.67;;
21806;SDS011;11065;50.786;7.840;2022-10-16T07:21:29;1.80;;;0.80;;
21806;SDS011;11065;50.786;7.840;2022-10-16T07:23:58;0.70;;;0.43;;
21806;SDS011;11065;50.786;7.840;2022-10-16T07:26:28;1.77;;;0.50;;
21806;SDS011;11065;50.786;7.840;2022-10-16T07:28:57;0.83;;;0.50;;
21806;SDS011;11065;50.786;7.840;2022-10-16T07:31:24;1.50;;;0.60;;
21806;SDS011;11065;50.786;7.840;2022-10-16T07:33:51;0.90;;;0.57;;
21806;SDS011;11065;50.786;7.840;2022-10-16T07:36:19;2.20;;;0.60;;
21806;SDS011;11065;50.786;7.840;2022-10-16T07:38:47;1.37;;;0.47;;
21806;SDS011;11065;50.786;7.840;2022-10-16T07:41:15;1.20;;;0.40;;
21806;SDS011;11065;50.786;7.840;2022-10-16T07:43:47;0.83;;;0.40;;
21806;SDS011;11065;50.786;7.840;2022-10-16T07:46:16;0.60;;;0.30;;
21806;SDS011;11065;50.786;7.840;2022-10-16T07:48:43;1.33;;;0.33;;
21806;SDS011;11065;50.786;7.840;2022-10-16T07:51:14;0.73;;;0.47;;
21806;SDS011;11065;50.786;7.840;2022-10-16T07:53:42;0.40;;;0.40;;
21806;SDS011;11065;50.786;7.840;2022-10-16T07:56:08;0.80;;;0.40;;
21806;SDS011;11065;50.786;7.840;2022-10-16T07:58:35;1.60;;;0.40;;
21806;SDS011;11065;50.786;7.840;2022-10-16T08:01:06;4.83;;;1.17;;
21806;SDS011;11065;50.786;7.840;2022-10-16T08:03:35;1.40;;;0.50;;
21806;SDS011;11065;50.786;7.840;2022-10-16T08:06:02;2.10;;;0.40;;
21806;SDS011;11065;50.786;7.840;2022-10-16T08:08:30;1.13;;;0.40;;
21806;SDS011;11065;50.786;7.840;2022-10-16T08:10:57;1.40;;;0.60;;
21806;SDS011;11065;50.786;7.840;2022-10-16T08:13:23;1.43;;;0.70;;
21806;SDS011;11065;50.786;7.840;2022-10-16T08:15:51;1.53;;;0.70;;
21806;SDS011;11065;50.786;7.840;2022-10-16T08:18:19;0.87;;;0.50;;
21806;SDS011;11065;50.786;7.840;2022-10-16T08:20:46;0.70;;;0.50;;
21806;SDS011;11065;50.786;7.840;2022-10-16T08:23:13;2.07;;;0.50;;
21806;SDS011;11065;50.786;7.840;2022-10-16T08:25:40;0.80;;;0.40;;
21806;SDS011;11065;50.786;7.840;2022-10-16T08:28:07;1.27;;;0.50;;
21806;SDS011;11065;50.786;7.840;2022-10-16T08:30:36;0.80;;;0.40;;
21806;SDS011;11065;50.786;7.840;2022-10-16T08:33:04;0.80;;;0.37;;
21806;SDS011;11065;50.786;7.840;2022-10-16T08:35:32;1.60;;;0.60;;
21806;SDS011;11065;50.786;7.840;2022-10-16T08:37:59;0.93;;;0.50;;
21806;SDS011;11065;50.786;7.840;2022-10-16T08:40:27;1.57;;;0.50;;
21806;SDS011;11065;50.786;7.840;2022-10-16T08:48:11;1.15;;;0.40;;
21806;SDS011;11065;50.786;7.840;2022-10-16T08:50:46;0.43;;;0.40;;
21806;SDS011;11065;50.786;7.840;2022-10-16T08:53:18;1.90;;;0.43;;
21806;SDS011;11065;50.786;7.840;2022-10-16T08:55:51;0.98;;;0.40;;
21806;SDS011;11065;50.786;7.840;2022-10-16T08:58:20;2.22;;;0.50;;
21806;SDS011;11065;50.786;7.840;2022-10-16T09:00:59;1.52;;;0.38;;
21806;SDS011;11065;50.786;7.840;2022-10-16T09:06:32;0.82;;;0.50;;
21806;SDS011;11065;50.786;7.840;2022-10-16T09:09:15;0.70;;;0.30;;
21806;SDS011;11065;50.786;7.840;2022-10-16T09:22:36;0.90;;;0.43;;
21806;SDS011;11065;50.786;7.840;2022-10-16T09:25:10;1.17;;;0.40;;
21806;SDS011;11065;50.786;7.840;2022-10-16T09:27:39;1.67;;;0.43;;
21806;SDS011;11065;50.786;7.840;2022-10-16T09:30:16;1.17;;;0.50;;
21806;SDS011;11065;50.786;7.840;2022-10-16T09:32:45;0.60;;;0.40;;
21806;SDS011;11065;50.786;7.840;2022-10-16T09:35:18;0.95;;;0.45;;
21806;SDS011;11065;50.786;7.840;2022-10-16T09:37:48;3.05;;;0.50;;
21806;SDS011;11065;50.786;7.840;2022-10-16T09:40:30;0.57;;;0.20;;
21806;SDS011;11065;50.786;7.840;2022-10-16T09:45:32;4.72;;;0.90;;
21806;SDS011;11065;50.786;7.840;2022-10-16T09:48:00;0.52;;;0.40;;
21806;SDS011;11065;50.786;7.840;2022-10-16T09:50:36;1.45;;;0.40;;
21806;SDS011;11065;50.786;7.840;2022-10-16T09:53:03;0.35;;;0.30;;
21806;SDS011;11065;50.786;7.840;2022-10-16T09:55:31;3.30;;;0.52;;
21806;SDS011;11065;50.786;7.840;2022-10-16T09:57:58;1.45;;;0.30;;
21806;SDS011;11065;50.786;7.840;2022-10-16T10:00:24;0.40;;;0.30;;
21806;SDS011;11065;50.786;7.840;2022-10-16T10:02:52;1.00;;;0.50;;
21806;SDS011;11065;50.786;7.840;2022-10-16T10:05:26;0.70;;;0.30;;
21806;SDS011;11065;50.786;7.840;2022-10-16T10:07:55;0.65;;;0.40;;
21806;SDS011;11065;50.786;7.840;2022-10-16T10:10:33;1.05;;;0.30;;
21806;SDS011;11065;50.786;7.840;2022-10-16T10:13:14;0.52;;;0.45;;
21806;SDS011;11065;50.786;7.840;2022-10-16T10:15:45;1.15;;;0.30;;
21806;SDS011;11065;50.786;7.840;2022-10-16T10:18:18;0.43;;;0.40;;
21806;SDS011;11065;50.786;7.840;2022-10-16T10:20:58;0.65;;;0.30;;
21806;SDS011;11065;50.786;7.840;2022-10-16T10:23:27;0.60;;;0.25;;
21806;SDS011;11065;50.786;7.840;2022-10-16T10:26:07;0.93;;;0.38;;
21806;SDS011;11065;50.786;7.840;2022-10-16T10:28:40;0.40;;;0.40;;
21806;SDS011;11065;50.786;7.840;2022-10-16T10:31:21;1.02;;;0.40;;
21806;SDS011;11065;50.786;7.840;2022-10-16T10:36:56;0.32;;;0.22;;
21806;SDS011;11065;50.786;7.840;2022-10-16T10:39:38;0.32;;;0.30;;
21806;SDS011;11065;50.786;7.840;2022-10-16T10:47:59;1.98;;;0.32;;
21806;SDS011;11065;50.786;7.840;2022-10-16T10:50:43;0.20;;;0.20;;
21806;SDS011;11065;50.786;7.840;2022-10-16T10:56:21;0.88;;;0.32;;
21806;SDS011;11065;50.786;7.840;2022-10-16T11:02:00;0.40;;;0.40;;
21806;SDS011;11065;50.786;7.840;2022-10-16T11:07:48;0.30;;;0.30;;
21806;SDS011;11065;50.786;7.840;2022-10-16T11:10:20;0.88;;;0.32;;
21806;SDS011;11065;50.786;7.840;2022-10-16T11:12:55;1.13;;;0.40;;
21806;SDS011;11065;50.786;7.840;2022-10-16T11:15:28;1.58;;;0.40;;
21806;SDS011;11065;50.786;7.840;2022-10-16T11:18:05;0.50;;;0.30;;
21806;SDS011;11065;50.786;7.840;2022-10-16T11:20:40;0.30;;;0.30;;
21806;SDS011;11065;50.786;7.840;2022-10-16T11:23:13;0.47;;;0.30;;
21806;SDS011;11065;50.786;7.840;2022-10-16T11:25:43;0.55;;;0.35;;
21806;SDS011;11065;50.786;7.840;2022-10-16T11:31:00;0.52;;;0.20;;
21806;SDS011;11065;50.786;7.840;2022-10-16T11:36:09;0.63;;;0.30;;
21806;SDS011;11065;50.786;7.840;2022-10-16T11:41:37;1.05;;;0.30;;
21806;SDS011;11065;50.786;7.840;2022-10-16T11:47:31;1.83;;;0.35;;
21806;SDS011;11065;50.786;7.840;2022-10-16T11:55:37;1.15;;;0.40;;
21806;SDS011;11065;50.786;7.840;2022-10-16T12:04:43;0.30;;;0.30;;
21806;SDS011;11065;50.786;7.840;2022-10-16T12:06:46;0.40;;;0.38;;
21806;SDS011;11065;50.786;7.840;2022-10-16T12:09:22;0.40;;;0.28;;
21806;SDS011;11065;50.786;7.840;2022-10-16T12:11:57;1.08;;;0.40;;
21806;SDS011;11065;50.786;7.840;2022-10-16T12:22:41;0.35;;;0.25;;
21806;SDS011;11065;50.786;7.840;2022-10-16T12:25:32;0.93;;;0.40;;
21806;SDS011;11065;50.786;7.840;2022-10-16T12:28:05;0.40;;;0.30;;
21806;SDS011;11065;50.786;7.840;2022-10-16T12:30:43;0.65;;;0.20;;
21806;SDS011;11065;50.786;7.840;2022-10-16T12:33:23;1.15;;;0.40;;
21806;SDS011;11065;50.786;7.840;2022-10-16T12:35:55;1.10;;;0.30;;
21806;SDS011;11065;50.786;7.840;2022-10-16T12:38:25;0.68;;;0.40;;
21806;SDS011;11065;50.786;7.840;2022-10-16T12:41:08;0.38;;;0.20;;
21806;SDS011;11065;50.786;7.840;2022-10-16T12:48:42;0.68;;;0.32;;
21806;SDS011;11065;50.786;7.840;2022-10-16T13:05:33;1.33;;;0.43;;
21806;SDS011;11065;50.786;7.840;2022-10-16T13:08:35;0.88;;;0.20;;
21806;SDS011;11065;50.786;7.840;2022-10-16T13:24:52;1.60;;;0.20;;
21806;SDS011;11065;50.786;7.840;2022-10-16T13:32:39;4.68;;;0.80;;
21806;SDS011;11065;50.786;7.840;2022-10-16T13:35:23;0.73;;;0.30;;
21806;SDS011;11065;50.786;7.840;2022-10-16T13:38:03;0.80;;;0.35;;
21806;SDS011;11065;50.786;7.840;2022-10-16T13:40:51;1.80;;;0.30;;
21806;SDS011;11065;50.786;7.840;2022-10-16T13:46:06;0.85;;;0.30;;
21806;SDS011;11065;50.786;7.840;2022-10-16T13:48:55;0.38;;;0.20;;
21806;SDS011;11065;50.786;7.840;2022-10-16T13:51:38;0.30;;;0.20;;
21806;SDS011;11065;50.786;7.840;2022-10-16T13:54:04;0.50;;;0.28;;
21806;SDS011;11065;50.786;7.840;2022-10-16T13:56:32;0.25;;;0.20;;
21806;SDS011;11065;50.786;7.840;2022-10-16T13:59:03;0.98;;;0.38;;
21806;SDS011;11065;50.786;7.840;2022-10-16T14:01:35;0.50;;;0.20;;
21806;SDS011;11065;50.786;7.840;2022-10-16T14:04:08;1.25;;;0.30;;
21806;SDS011;11065;50.786;7.840;2022-10-16T14:06:40;0.17;;;0.13;;
21806;SDS011;11065;50.786;7.840;2022-10-16T14:09:09;1.38;;;0.30;;
21806;SDS011;11065;50.786;7.840;2022-10-16T14:11:49;0.40;;;0.30;;
21806;SDS011;11065;50.786;7.840;2022-10-16T14:14:19;0.50;;;0.30;;
21806;SDS011;11065;50.786;7.840;2022-10-16T14:16:46;0.57;;;0.28;;
21806;SDS011;11065;50.786;7.840;2022-10-16T14:19:15;2.60;;;0.40;;
21806;SDS011;11065;50.786;7.840;2022-10-16T14:21:47;0.98;;;0.28;;
21806;SDS011;11065;50.786;7.840;2022-10-16T14:26:56;0.90;;;0.30;;
21806;SDS011;11065;50.786;7.840;2022-10-16T14:29:24;0.80;;;0.20;;
21806;SDS011;11065;50.786;7.840;2022-10-16T14:32:02;1.25;;;0.40;;
21806;SDS011;11065;50.786;7.840;2022-10-16T14:34:34;0.38;;;0.30;;
21806;SDS011;11065;50.786;7.840;2022-10-16T14:37:23;0.65;;;0.20;;
21806;SDS011;11065;50.786;7.840;2022-10-16T14:39:53;1.23;;;0.55;;
21806;SDS011;11065;50.786;7.840;2022-10-16T14:42:22;2.92;;;0.90;;
21806;SDS011;11065;50.786;7.840;2022-10-16T14:44:52;1.88;;;0.80;;
21806;SDS011;11065;50.786;7.840;2022-10-16T14:47:21;1.13;;;0.60;;
21806;SDS011;11065;50.786;7.840;2022-10-16T14:49:53;1.65;;;0.40;;
21806;SDS011;11065;50.786;7.840;2022-10-16T14:52:22;1.65;;;0.30;;
21806;SDS011;11065;50.786;7.840;2022-10-16T14:54:49;1.83;;;0.40;;
21806;SDS011;11065;50.786;7.840;2022-10-16T14:57:17;0.50;;;0.35;;
21806;SDS011;11065;50.786;7.840;2022-10-16T14:59:46;0.57;;;0.40;;
21806;SDS011;11065;50.786;7.840;2022-10-16T15:04:48;1.15;;;0.25;;
21806;SDS011;11065;50.786;7.840;2022-10-16T15:07:15;0.73;;;0.28;;
21806;SDS011;11065;50.786;7.840;2022-10-16T15:09:42;0.95;;;0.38;;
21806;SDS011;11065;50.786;7.840;2022-10-16T15:12:14;0.60;;;0.30;;
21806;SDS011;11065;50.786;7.840;2022-10-16T15:14:42;0.50;;;0.30;;
21806;SDS011;11065;50.786;7.840;2022-10-16T15:17:09;0.52;;;0.28;;
21806;SDS011;11065;50.786;7.840;2022-10-16T15:19:37;1.13;;;0.30;;
21806;SDS011;11065;50.786;7.840;2022-10-16T15:22:04;2.30;;;0.40;;
21806;SDS011;11065;50.786;7.840;2022-10-16T15:24:30;0.40;;;0.20;;
21806;SDS011;11065;50.786;7.840;2022-10-16T15:26:57;0.73;;;0.40;;
21806;SDS011;11065;50.786;7.840;2022-10-16T15:29:24;0.87;;;0.27;;
21806;SDS011;11065;50.786;7.840;2022-10-16T15:31:51;0.47;;;0.30;;
21806;SDS011;11065;50.786;7.840;2022-10-16T15:34:18;0.43;;;0.30;;
21806;SDS011;11065;50.786;7.840;2022-10-16T15:36:45;0.73;;;0.40;;
21806;SDS011;11065;50.786;7.840;2022-10-16T15:41:41;0.97;;;0.50;;
21806;SDS011;11065;50.786;7.840;2022-10-16T15:44:08;1.00;;;0.30;;
21806;SDS011;11065;50.786;7.840;2022-10-16T15:46:35;0.50;;;0.30;;
21806;SDS011;11065;50.786;7.840;2022-10-16T15:49:03;1.37;;;0.73;;
21806;SDS011;11065;50.786;7.840;2022-10-16T15:51:30;2.87;;;0.70;;
21806;SDS011;11065;50.786;7.840;2022-10-16T15:53:59;2.87;;;1.20;;
21806;SDS011;11065;50.786;7.840;2022-10-16T15:56:27;3.27;;;0.90;;
21806;SDS011;11065;50.786;7.840;2022-10-16T15:58:54;2.30;;;1.10;;
21806;SDS011;11065;50.786;7.840;2022-10-16T16:01:23;2.27;;;1.33;;
21806;SDS011;11065;50.786;7.840;2022-10-16T16:03:53;1.70;;;1.10;;
21806;SDS011;11065;50.786;7.840;2022-10-16T16:06:21;1.43;;;0.73;;
21806;SDS011;11065;50.786;7.840;2022-10-16T16:08:50;2.80;;;0.77;;
21806;SDS011;11065;50.786;7.840;2022-10-16T16:11:18;4.07;;;0.90;;
21806;SDS011;11065;50.786;7.840;2022-10-16T16:13:45;1.93;;;1.00;;
21806;SDS011;11065;50.786;7.840;2022-10-16T16:16:13;2.83;;;0.90;;
21806;SDS011;11065;50.786;7.840;2022-10-16T16:18:41;1.23;;;0.80;;
21806;SDS011;11065;50.786;7.840;2022-10-16T16:21:10;1.20;;;0.73;;
21806;SDS011;11065;50.786;7.840;2022-10-16T16:23:38;1.83;;;0.80;;
21806;SDS011;11065;50.786;7.840;2022-10-16T16:28:39;2.47;;;0.67;;
21806;SDS011;11065;50.786;7.840;2022-10-16T16:31:06;2.10;;;1.00;;
21806;SDS011;11065;50.786;7.840;2022-10-16T16:33:33;2.37;;;0.90;;
21806;SDS011;11065;50.786;7.840;2022-10-16T16:36:02;1.67;;;0.57;;
21806;SDS011;11065;50.786;7.840;2022-10-16T16:38:35;1.30;;;0.50;;
21806;SDS011;11065;50.786;7.840;2022-10-16T16:41:15;0.97;;;0.47;;
21806;SDS011;11065;50.786;7.840;2022-10-16T16:43:44;1.47;;;0.40;;
21806;SDS011;11065;50.786;7.840;2022-10-16T16:46:11;0.87;;;0.30;;
21806;SDS011;11065;50.786;7.840;2022-10-16T16:48:38;1.10;;;0.60;;
21806;SDS011;11065;50.786;7.840;2022-10-16T16:51:06;1.67;;;0.60;;
21806;SDS011;11065;50.786;7.840;2022-10-16T16:53:35;1.03;;;0.60;;
21806;SDS011;11065;50.786;7.840;2022-10-16T16:56:03;6.33;;;2.60;;
21806;SDS011;11065;50.786;7.840;2022-10-16T16:58:31;5.93;;;3.73;;
21806;SDS011;11065;50.786;7.840;2022-10-16T17:00:59;6.67;;;3.60;;
21806;SDS011;11065;50.786;7.840;2022-10-16T17:03:45;5.53;;;2.60;;
21806;SDS011;11065;50.786;7.840;2022-10-16T17:06:16;2.93;;;2.07;;
21806;SDS011;11065;50.786;7.840;2022-10-16T17:08:47;2.27;;;1.00;;
21806;SDS011;11065;50.786;7.840;2022-10-16T17:11:16;2.10;;;0.87;;
21806;SDS011;11065;50.786;7.840;2022-10-16T17:13:46;3.57;;;0.80;;
21806;SDS011;11065;50.786;7.840;2022-10-16T17:16:18;3.70;;;0.97;;
21806;SDS011;11065;50.786;7.840;2022-10-16T17:18:45;3.63;;;1.10;;
21806;SDS011;11065;50.786;7.840;2022-10-16T17:21:12;4.63;;;1.30;;
21806;SDS011;11065;50.786;7.840;2022-10-16T17:23:39;3.90;;;1.73;;